sensor_id;sensor_type;location;lat;lon;timestamp;temperature;humidity
44855;DHT22;30591;48.228;16.398;2023-02-01T00:01:09;3.90;99.90
44855;DHT22;30591;48.228;16.398;2023-02-01T00:03:36;3.80;99.90
44855;DHT22;30591;48.228;16.398;2023-02-01T00:06:04;3.80;99.90
44855;DHT22;30591;48.228;16.398;2023-02-01T00:08:31;3.90;99.90
44855;DHT22;30591;48.228;16.398;2023-02-01T00:11:04;3.90;99.90
44855;DHT22;30591;48.228;16.398;2023-02-01T00:13:34;3.90;99.90
44855;DHT22;30591;48.228;16.398;2023-02-01T00:16:07;3.90;99.90
44855;DHT22;30591;48.228;16.398;2023-02-01T00:18:35;3.80;99.90
44855;DHT22;30591;48.228;16.398;2023-02-01T00:21:03;3.80;99.90
44855;DHT22;30591;48.228;16.398;2023-02-01T00:23:35;3.90;99.90
44855;DHT22;30591;48.228;16.398;2023-02-01T00:26:11;3.90;99.90
44855;DHT22;30591;48.228;16.398;2023-02-01T00:28:40;3.90;99.90
44855;DHT22;30591;48.228;16.398;2023-02-01T00:31:08;3.90;99.90
44855;DHT22;30591;48.228;16.398;2023-02-01T00:33:35;3.90;99.90
44855;DHT22;30591;48.228;16.398;2023-02-01T00:36:06;3.90;99.90
44855;DHT22;30591;48.228;16.398;2023-02-01T00:38:36;4.00;99.90
44855;DHT22;30591;48.228;16.398;2023-02-01T00:41:07;3.90;99.90
44855;DHT22;30591;48.228;16.398;2023-02-01T00:43:36;4.00;99.90
44855;DHT22;30591;48.228;16.398;2023-02-01T00:46:04;3.90;99.90
44855;DHT22;30591;48.228;16.398;2023-02-01T00:48:32;3.90;99.90
44855;DHT22;30591;48.228;16.398;2023-02-01T00:51:01;4.00;99.90
44855;DHT22;30591;48.228;16.398;2023-02-01T00:53:29;3.90;99.90
44855;DHT22;30591;48.228;16.398;2023-02-01T00:55:56;3.90;99.90
44855;DHT22;30591;48.228;16.398;2023-02-01T00:58:24;4.00;99.90
44855;DHT22;30591;48.228;16.398;2023-02-01T01:01:06;3.90;99.90
44855;DHT22;30591;48.228;16.398;2023-02-01T01:03:37;3.90;99.90
44855;DHT22;30591;48.228;16.398;2023-02-01T01:06:14;3.90;99.90
44855;DHT22;30591;48.228;16.398;2023-02-01T01:08:42;3.90;99.90
44855;DHT22;30591;48.228;16.398;2023-02-01T01:11:16;3.90;99.90
44855;DHT22;30591;48.228;16.398;2023-02-01T01:13:47;3.90;99.90
44855;DHT22;30591;48.228;16.398;2023-02-01T01:16:15;3.80;99.90
44855;DHT22;30591;48.228;16.398;2023-02-01T01:18:43;3.80;99.90
44855;DHT22;30591;48.228;16.398;2023-02-01T01:21:12;3.80;99.90
44855;DHT22;30591;48.228;16.398;2023-02-01T01:23:40;3.80;99.90
44855;DHT22;30591;48.228;16.398;2023-02-01T01:26:10;3.80;99.90
44855;DHT22;30591;48.228;16.398;2023-02-01T01:28:37;3.70;99.90
44855;DHT22;30591;48.228;16.398;2023-02-01T01:31:08;3.70;99.90
44855;DHT22;30591;48.228;16.398;2023-02-01T01:33:37;3.70;99.90
44855;DHT22;30591;48.228;16.398;2023-02-01T01:36:07;3.80;99.90
44855;DHT22;30591;48.228;16.398;2023-02-01T01:38:38;3.70;99.90
44855;DHT22;30591;48.228;16.398;2023-02-01T01:41:07;3.70;99.90
44855;DHT22;30591;48.228;16.398;2023-02-01T01:44:05;3.70;99.90
44855;DHT22;30591;48.228;16.398;2023-02-01T01:46:37;3.70;99.90
44855;DHT22;30591;48.228;16.398;2023-02-01T01:49:09;3.70;99.90
44855;DHT22;30591;48.228;16.398;2023-02-01T01:51:44;3.70;99.90
44855;DHT22;30591;48.228;16.398;2023-02-01T01:54:29;3.70;99.90
44855;DHT22;30591;48.228;16.398;2023-02-01T01:57:07;3.70;99.90
44855;DHT22;30591;48.228;16.398;2023-02-01T01:59:38;3.70;99.90
44855;DHT22;30591;48.228;16.398;2023-02-01T02:02:07;3.70;99.90
44855;DHT22;30591;48.228;16.398;2023-02-01T02:04:35;3.80;99.90
44855;DHT22;30591;48.228;16.398;2023-02-01T02:07:08;3.80;99.90
44855;DHT22;30591;48.228;16.398;2023-02-01T02:09:36;3.80;99.90
44855;DHT22;30591;48.228;16.398;2023-02-01T02:12:07;3.80;99.90
44855;DHT22;30591;48.228;16.398;2023-02-01T02:14:35;3.80;99.90
44855;DHT22;30591;48.228;16.398;2023-02-01T02:22:48;3.60;99.90
44855;DHT22;30591;48.228;16.398;2023-02-01T02:38:58;3.90;99.90
44855;DHT22;30591;48.228;16.398;2023-02-01T02:45:16;3.90;99.90
44855;DHT22;30591;48.228;16.398;2023-02-01T02:48:12;3.90;99.90
44855;DHT22;30591;48.228;16.398;2023-02-01T02:50:49;3.90;99.90
44855;DHT22;30591;48.228;16.398;2023-02-01T02:56:33;3.90;99.90
44855;DHT22;30591;48.228;16.398;2023-02-01T02:59:22;3.90;99.90
44855;DHT22;30591;48.228;16.398;2023-02-01T03:02:11;3.90;99.90
44855;DHT22;30591;48.228;16.398;2023-02-01T03:04:58;3.90;99.90
44855;DHT22;30591;48.228;16.398;2023-02-01T03:18:32;3.90;99.90
44855;DHT22;30591;48.228;16.398;2023-02-01T03:21:04;3.90;99.90
44855;DHT22;30591;48.228;16.398;2023-02-01T03:23:35;4.00;99.90
44855;DHT22;30591;48.228;16.398;2023-02-01T03:26:11;4.00;99.90
44855;DHT22;30591;48.228;16.398;2023-02-01T03:28:47;4.00;99.90
44855;DHT22;30591;48.228;16.398;2023-02-01T03:31:16;4.00;99.90
44855;DHT22;30591;48.228;16.398;2023-02-01T03:33:43;4.00;99.90
44855;DHT22;30591;48.228;16.398;2023-02-01T03:36:25;4.10;99.90
44855;DHT22;30591;48.228;16.398;2023-02-01T03:39:07;4.00;99.90
44855;DHT22;30591;48.228;16.398;2023-02-01T03:44:25;4.00;99.90
44855;DHT22;30591;48.228;16.398;2023-02-01T03:49:38;3.90;99.90
44855;DHT22;30591;48.228;16.398;2023-02-01T03:52:15;4.00;99.90
44855;DHT22;30591;48.228;16.398;2023-02-01T03:54:45;3.90;99.90
44855;DHT22;30591;48.228;16.398;2023-02-01T03:57:16;3.90;99.90
44855;DHT22;30591;48.228;16.398;2023-02-01T03:59:45;3.90;99.90
44855;DHT22;30591;48.228;16.398;2023-02-01T04:02:12;3.80;99.90
44855;DHT22;30591;48.228;16.398;2023-02-01T04:04:40;3.90;99.90
44855;DHT22;30591;48.228;16.398;2023-02-01T04:07:08;3.90;99.90
44855;DHT22;30591;48.228;16.398;2023-02-01T04:09:36;3.90;99.90
44855;DHT22;30591;48.228;16.398;2023-02-01T04:12:03;3.90;99.90
44855;DHT22;30591;48.228;16.398;2023-02-01T04:14:32;3.80;99.90
44855;DHT22;30591;48.228;16.398;2023-02-01T04:16:59;3.90;99.90
44855;DHT22;30591;48.228;16.398;2023-02-01T04:19:26;3.90;99.90
44855;DHT22;30591;48.228;16.398;2023-02-01T04:21:53;4.00;99.90
44855;DHT22;30591;48.228;16.398;2023-02-01T04:24:21;4.00;99.90
44855;DHT22;30591;48.228;16.398;2023-02-01T04:26:48;4.00;99.90
44855;DHT22;30591;48.228;16.398;2023-02-01T04:29:15;4.10;99.90
44855;DHT22;30591;48.228;16.398;2023-02-01T04:31:42;4.10;99.90
44855;DHT22;30591;48.228;16.398;2023-02-01T04:34:10;4.10;99.90
44855;DHT22;30591;48.228;16.398;2023-02-01T04:36:37;4.10;99.90
44855;DHT22;30591;48.228;16.398;2023-02-01T04:39:04;4.00;99.90
44855;DHT22;30591;48.228;16.398;2023-02-01T04:41:32;4.10;99.90
44855;DHT22;30591;48.228;16.398;2023-02-01T04:43:59;4.10;99.90
44855;DHT22;30591;48.228;16.398;2023-02-01T04:46:27;4.10;99.90
44855;DHT22;30591;48.228;16.398;2023-02-01T04:48:54;4.10;99.90
44855;DHT22;30591;48.228;16.398;2023-02-01T04:51:21;4.00;99.90
44855;DHT22;30591;48.228;16.398;2023-02-01T04:53:49;4.00;99.90
44855;DHT22;30591;48.228;16.398;2023-02-01T04:56:16;4.00;99.90
44855;DHT22;30591;48.228;16.398;2023-02-01T04:58:43;4.00;99.90
44855;DHT22;30591;48.228;16.398;2023-02-01T05:01:10;4.00;99.90
44855;DHT22;30591;48.228;16.398;2023-02-01T05:03:38;4.00;99.90
44855;DHT22;30591;48.228;16.398;2023-02-01T05:06:05;4.00;99.90
44855;DHT22;30591;48.228;16.398;2023-02-01T05:08:33;4.00;99.90
44855;DHT22;30591;48.228;16.398;2023-02-01T05:11:01;4.10;99.90
44855;DHT22;30591;48.228;16.398;2023-02-01T05:13:31;4.10;99.90
44855;DHT22;30591;48.228;16.398;2023-02-01T05:16:17;4.00;99.90
44855;DHT22;30591;48.228;16.398;2023-02-01T05:18:44;4.10;99.90
44855;DHT22;30591;48.228;16.398;2023-02-01T05:21:13;4.20;99.90
44855;DHT22;30591;48.228;16.398;2023-02-01T05:23:40;4.20;99.90
44855;DHT22;30591;48.228;16.398;2023-02-01T05:26:26;4.10;99.90
44855;DHT22;30591;48.228;16.398;2023-02-01T05:28:54;4.20;99.90
44855;DHT22;30591;48.228;16.398;2023-02-01T05:31:21;4.20;99.90
44855;DHT22;30591;48.228;16.398;2023-02-01T05:33:49;4.30;99.90
44855;DHT22;30591;48.228;16.398;2023-02-01T05:36:17;4.30;99.90
44855;DHT22;30591;48.228;16.398;2023-02-01T05:38:45;4.30;99.90
44855;DHT22;30591;48.228;16.398;2023-02-01T05:41:13;4.30;99.90
44855;DHT22;30591;48.228;16.398;2023-02-01T05:43:40;4.30;99.90
44855;DHT22;30591;48.228;16.398;2023-02-01T05:46:07;4.30;99.90
44855;DHT22;30591;48.228;16.398;2023-02-01T05:48:37;4.30;99.90
44855;DHT22;30591;48.228;16.398;2023-02-01T05:51:05;4.30;99.90
44855;DHT22;30591;48.228;16.398;2023-02-01T05:53:32;4.30;99.90
44855;DHT22;30591;48.228;16.398;2023-02-01T05:56:00;4.30;99.90
44855;DHT22;30591;48.228;16.398;2023-02-01T05:58:27;4.30;99.90
44855;DHT22;30591;48.228;16.398;2023-02-01T06:00:53;4.30;99.90
44855;DHT22;30591;48.228;16.398;2023-02-01T06:03:21;4.20;99.90
44855;DHT22;30591;48.228;16.398;2023-02-01T06:05:48;4.30;99.90
44855;DHT22;30591;48.228;16.398;2023-02-01T06:08:15;4.30;99.90
44855;DHT22;30591;48.228;16.398;2023-02-01T06:10:44;4.30;99.90
44855;DHT22;30591;48.228;16.398;2023-02-01T06:13:11;4.40;99.90
44855;DHT22;30591;48.228;16.398;2023-02-01T06:15:38;4.40;99.90
44855;DHT22;30591;48.228;16.398;2023-02-01T06:18:06;4.40;99.90
44855;DHT22;30591;48.228;16.398;2023-02-01T06:20:33;4.40;99.90
44855;DHT22;30591;48.228;16.398;2023-02-01T06:23:00;4.50;99.90
44855;DHT22;30591;48.228;16.398;2023-02-01T06:25:28;4.60;99.90
44855;DHT22;30591;48.228;16.398;2023-02-01T06:27:55;4.60;99.90
44855;DHT22;30591;48.228;16.398;2023-02-01T06:30:22;4.60;99.90
44855;DHT22;30591;48.228;16.398;2023-02-01T06:32:51;4.50;99.90
44855;DHT22;30591;48.228;16.398;2023-02-01T06:35:21;4.50;99.90
44855;DHT22;30591;48.228;16.398;2023-02-01T06:37:48;4.50;99.90
44855;DHT22;30591;48.228;16.398;2023-02-01T06:40:15;4.40;99.90
44855;DHT22;30591;48.228;16.398;2023-02-01T06:42:43;4.50;99.90
44855;DHT22;30591;48.228;16.398;2023-02-01T06:45:10;4.50;99.90
44855;DHT22;30591;48.228;16.398;2023-02-01T06:47:37;4.60;99.90
44855;DHT22;30591;48.228;16.398;2023-02-01T06:50:05;4.60;99.90
44855;DHT22;30591;48.228;16.398;2023-02-01T06:52:33;4.60;99.90
44855;DHT22;30591;48.228;16.398;2023-02-01T06:55:00;4.60;99.90
44855;DHT22;30591;48.228;16.398;2023-02-01T06:57:27;4.60;99.90
44855;DHT22;30591;48.228;16.398;2023-02-01T06:59:57;4.60;99.90
44855;DHT22;30591;48.228;16.398;2023-02-01T07:02:25;4.60;99.90
44855;DHT22;30591;48.228;16.398;2023-02-01T07:04:52;4.50;99.90
44855;DHT22;30591;48.228;16.398;2023-02-01T07:07:20;4.50;99.90
44855;DHT22;30591;48.228;16.398;2023-02-01T07:09:49;4.50;99.90
44855;DHT22;30591;48.228;16.398;2023-02-01T07:12:18;4.60;99.90
44855;DHT22;30591;48.228;16.398;2023-02-01T07:14:45;4.60;99.90
44855;DHT22;30591;48.228;16.398;2023-02-01T07:17:13;4.60;99.90
44855;DHT22;30591;48.228;16.398;2023-02-01T07:19:40;4.60;99.90
44855;DHT22;30591;48.228;16.398;2023-02-01T07:22:07;4.60;99.90
44855;DHT22;30591;48.228;16.398;2023-02-01T07:24:35;4.70;99.90
44855;DHT22;30591;48.228;16.398;2023-02-01T07:27:02;4.70;99.90
44855;DHT22;30591;48.228;16.398;2023-02-01T07:29:29;4.70;99.90
44855;DHT22;30591;48.228;16.398;2023-02-01T07:31:58;4.70;99.90
44855;DHT22;30591;48.228;16.398;2023-02-01T07:34:25;4.70;99.90
44855;DHT22;30591;48.228;16.398;2023-02-01T07:36:53;4.70;99.90
44855;DHT22;30591;48.228;16.398;2023-02-01T07:39:20;4.70;99.90
44855;DHT22;30591;48.228;16.398;2023-02-01T07:41:47;4.70;99.90
44855;DHT22;30591;48.228;16.398;2023-02-01T07:44:15;4.80;99.90
44855;DHT22;30591;48.228;16.398;2023-02-01T07:46:43;4.80;99.90
44855;DHT22;30591;48.228;16.398;2023-02-01T07:49:11;4.90;99.90
44855;DHT22;30591;48.228;16.398;2023-02-01T07:51:39;4.90;99.90
44855;DHT22;30591;48.228;16.398;2023-02-01T07:54:07;4.90;99.90
44855;DHT22;30591;48.228;16.398;2023-02-01T07:56:34;5.00;99.90
44855;DHT22;30591;48.228;16.398;2023-02-01T07:59:01;5.00;99.90
44855;DHT22;30591;48.228;16.398;2023-02-01T08:01:29;5.00;99.90
44855;DHT22;30591;48.228;16.398;2023-02-01T08:03:58;5.00;99.90
44855;DHT22;30591;48.228;16.398;2023-02-01T08:06:27;5.00;99.90
44855;DHT22;30591;48.228;16.398;2023-02-01T08:08:55;5.00;99.90
44855;DHT22;30591;48.228;16.398;2023-02-01T08:11:24;5.10;99.90
44855;DHT22;30591;48.228;16.398;2023-02-01T08:13:53;5.10;99.90
44855;DHT22;30591;48.228;16.398;2023-02-01T08:16:23;5.10;99.90
44855;DHT22;30591;48.228;16.398;2023-02-01T08:18:51;5.20;99.90
44855;DHT22;30591;48.228;16.398;2023-02-01T08:21:24;5.30;99.90
44855;DHT22;30591;48.228;16.398;2023-02-01T08:23:53;5.30;99.90
44855;DHT22;30591;48.228;16.398;2023-02-01T08:26:24;5.30;99.90
44855;DHT22;30591;48.228;16.398;2023-02-01T08:28:57;5.30;99.90
44855;DHT22;30591;48.228;16.398;2023-02-01T08:31:26;5.50;99.90
44855;DHT22;30591;48.228;16.398;2023-02-01T08:33:57;5.50;99.90
44855;DHT22;30591;48.228;16.398;2023-02-01T08:36:27;5.60;99.90
44855;DHT22;30591;48.228;16.398;2023-02-01T08:38:54;5.60;99.90
44855;DHT22;30591;48.228;16.398;2023-02-01T08:41:25;5.70;99.90
44855;DHT22;30591;48.228;16.398;2023-02-01T08:47:11;5.80;99.90
44855;DHT22;30591;48.228;16.398;2023-02-01T08:49:38;5.90;99.90
44855;DHT22;30591;48.228;16.398;2023-02-01T08:52:05;5.80;99.90
44855;DHT22;30591;48.228;16.398;2023-02-01T08:54:42;5.80;99.90
44855;DHT22;30591;48.228;16.398;2023-02-01T08:57:09;5.70;99.90
44855;DHT22;30591;48.228;16.398;2023-02-01T08:59:38;5.70;99.90
44855;DHT22;30591;48.228;16.398;2023-02-01T09:02:05;5.70;99.90
44855;DHT22;30591;48.228;16.398;2023-02-01T09:04:32;5.70;99.90
44855;DHT22;30591;48.228;16.398;2023-02-01T09:07:00;5.60;99.90
44855;DHT22;30591;48.228;16.398;2023-02-01T09:09:28;5.60;99.90
44855;DHT22;30591;48.228;16.398;2023-02-01T09:11:55;5.60;99.90
44855;DHT22;30591;48.228;16.398;2023-02-01T09:14:23;5.60;99.90
44855;DHT22;30591;48.228;16.398;2023-02-01T09:16:51;5.60;99.90
44855;DHT22;30591;48.228;16.398;2023-02-01T09:19:19;5.70;99.90
44855;DHT22;30591;48.228;16.398;2023-02-01T09:21:53;5.70;99.90
44855;DHT22;30591;48.228;16.398;2023-02-01T09:24:20;5.60;99.90
44855;DHT22;30591;48.228;16.398;2023-02-01T09:26:47;5.60;99.90
44855;DHT22;30591;48.228;16.398;2023-02-01T09:29:15;5.60;99.90
44855;DHT22;30591;48.228;16.398;2023-02-01T09:31:43;5.50;99.90
44855;DHT22;30591;48.228;16.398;2023-02-01T09:34:27;5.40;99.90
44855;DHT22;30591;48.228;16.398;2023-02-01T09:36:55;5.30;99.90
44855;DHT22;30591;48.228;16.398;2023-02-01T09:39:23;5.30;99.90
44855;DHT22;30591;48.228;16.398;2023-02-01T09:44:45;5.20;99.90
44855;DHT22;30591;48.228;16.398;2023-02-01T09:47:16;5.20;99.90
44855;DHT22;30591;48.228;16.398;2023-02-01T09:53:21;5.30;99.90
44855;DHT22;30591;48.228;16.398;2023-02-01T09:55:53;5.30;99.90
44855;DHT22;30591;48.228;16.398;2023-02-01T09:58:59;5.20;99.90
44855;DHT22;30591;48.228;16.398;2023-02-01T10:01:29;5.20;99.90
44855;DHT22;30591;48.228;16.398;2023-02-01T10:04:02;5.20;99.90
44855;DHT22;30591;48.228;16.398;2023-02-01T10:11:59;5.30;99.90
44855;DHT22;30591;48.228;16.398;2023-02-01T10:22:46;5.60;99.90
44855;DHT22;30591;48.228;16.398;2023-02-01T10:28:13;5.30;99.90
44855;DHT22;30591;48.228;16.398;2023-02-01T10:30:45;5.30;99.90
44855;DHT22;30591;48.228;16.398;2023-02-01T10:33:25;5.50;99.90
44855;DHT22;30591;48.228;16.398;2023-02-01T10:35:58;5.60;99.90
44855;DHT22;30591;48.228;16.398;2023-02-01T10:38:32;5.60;99.90
44855;DHT22;30591;48.228;16.398;2023-02-01T10:41:10;5.70;99.90
44855;DHT22;30591;48.228;16.398;2023-02-01T10:43:39;5.80;99.90
44855;DHT22;30591;48.228;16.398;2023-02-01T10:46:07;5.90;99.90
44855;DHT22;30591;48.228;16.398;2023-02-01T10:48:35;5.80;99.90
44855;DHT22;30591;48.228;16.398;2023-02-01T10:51:07;5.70;99.90
44855;DHT22;30591;48.228;16.398;2023-02-01T10:53:53;5.80;99.90
44855;DHT22;30591;48.228;16.398;2023-02-01T10:56:24;6.50;99.90
44855;DHT22;30591;48.228;16.398;2023-02-01T10:59:03;6.30;99.90
44855;DHT22;30591;48.228;16.398;2023-02-01T11:01:33;6.00;99.90
44855;DHT22;30591;48.228;16.398;2023-02-01T11:04:03;5.70;99.90
44855;DHT22;30591;48.228;16.398;2023-02-01T11:06:37;6.00;99.90
44855;DHT22;30591;48.228;16.398;2023-02-01T11:14:17;8.60;99.90
44855;DHT22;30591;48.228;16.398;2023-02-01T11:16:51;9.40;99.90
44855;DHT22;30591;48.228;16.398;2023-02-01T11:19:20;8.00;99.90
44855;DHT22;30591;48.228;16.398;2023-02-01T11:21:52;6.90;99.90
44855;DHT22;30591;48.228;16.398;2023-02-01T11:24:32;6.40;99.90
44855;DHT22;30591;48.228;16.398;2023-02-01T11:27:02;6.20;99.90
44855;DHT22;30591;48.228;16.398;2023-02-01T11:29:38;6.00;99.90
44855;DHT22;30591;48.228;16.398;2023-02-01T11:32:08;6.00;99.90
44855;DHT22;30591;48.228;16.398;2023-02-01T11:34:38;6.00;99.90
44855;DHT22;30591;48.228;16.398;2023-02-01T11:37:24;6.00;99.90
44855;DHT22;30591;48.228;16.398;2023-02-01T11:39:56;6.10;99.90
44855;DHT22;30591;48.228;16.398;2023-02-01T11:42:26;6.20;99.90
44855;DHT22;30591;48.228;16.398;2023-02-01T11:45:30;6.10;99.90
44855;DHT22;30591;48.228;16.398;2023-02-01T11:47:58;6.20;99.90
44855;DHT22;30591;48.228;16.398;2023-02-01T11:58:46;6.10;99.90
44855;DHT22;30591;48.228;16.398;2023-02-01T12:01:37;6.20;99.90
44855;DHT22;30591;48.228;16.398;2023-02-01T12:07:32;7.70;99.90
44855;DHT22;30591;48.228;16.398;2023-02-01T12:10:09;7.20;99.90
44855;DHT22;30591;48.228;16.398;2023-02-01T12:15:36;6.60;99.90
44855;DHT22;30591;48.228;16.398;2023-02-01T12:21:11;6.10;99.90
44855;DHT22;30591;48.228;16.398;2023-02-01T12:24:15;6.00;99.90
44855;DHT22;30591;48.228;16.398;2023-02-01T12:26:57;5.90;99.90
44855;DHT22;30591;48.228;16.398;2023-02-01T12:35:47;5.80;99.90
44855;DHT22;30591;48.228;16.398;2023-02-01T12:41:08;5.70;99.90
44855;DHT22;30591;48.228;16.398;2023-02-01T12:43:53;5.80;99.90
44855;DHT22;30591;48.228;16.398;2023-02-01T12:46:46;5.90;99.90
44855;DHT22;30591;48.228;16.398;2023-02-01T12:52:30;6.00;99.90
44855;DHT22;30591;48.228;16.398;2023-02-01T12:55:38;5.90;99.90
44855;DHT22;30591;48.228;16.398;2023-02-01T12:58:18;5.90;99.90
44855;DHT22;30591;48.228;16.398;2023-02-01T13:11:24;7.40;99.90
44855;DHT22;30591;48.228;16.398;2023-02-01T13:16:50;7.50;99.90
44855;DHT22;30591;48.228;16.398;2023-02-01T13:19:29;7.50;99.90
44855;DHT22;30591;48.228;16.398;2023-02-01T13:22:09;7.40;99.90
44855;DHT22;30591;48.228;16.398;2023-02-01T13:24:44;7.40;99.90
44855;DHT22;30591;48.228;16.398;2023-02-01T13:27:14;7.40;99.90
44855;DHT22;30591;48.228;16.398;2023-02-01T13:30:06;7.30;99.90
44855;DHT22;30591;48.228;16.398;2023-02-01T13:41:40;7.40;99.90
44855;DHT22;30591;48.228;16.398;2023-02-01T13:44:16;7.30;99.90
44855;DHT22;30591;48.228;16.398;2023-02-01T13:46:47;7.20;99.90
44855;DHT22;30591;48.228;16.398;2023-02-01T13:49:26;7.30;99.90
44855;DHT22;30591;48.228;16.398;2023-02-01T13:51:57;7.20;99.90
44855;DHT22;30591;48.228;16.398;2023-02-01T13:54:39;7.20;99.90
44855;DHT22;30591;48.228;16.398;2023-02-01T13:57:36;7.10;99.90
44855;DHT22;30591;48.228;16.398;2023-02-01T14:00:28;7.10;99.90
44855;DHT22;30591;48.228;16.398;2023-02-01T14:03:10;7.10;99.90
44855;DHT22;30591;48.228;16.398;2023-02-01T14:10:59;7.20;99.90
44855;DHT22;30591;48.228;16.398;2023-02-01T14:29:19;7.50;99.90
44855;DHT22;30591;48.228;16.398;2023-02-01T14:55:27;6.70;99.90
44855;DHT22;30591;48.228;16.398;2023-02-01T14:57:58;6.80;99.90
44855;DHT22;30591;48.228;16.398;2023-02-01T15:00:29;6.70;99.90
44855;DHT22;30591;48.228;16.398;2023-02-01T15:05:59;6.70;99.90
44855;DHT22;30591;48.228;16.398;2023-02-01T15:08:38;6.70;99.90
44855;DHT22;30591;48.228;16.398;2023-02-01T15:11:12;6.60;99.90
44855;DHT22;30591;48.228;16.398;2023-02-01T15:13:49;6.50;99.90
44855;DHT22;30591;48.228;16.398;2023-02-01T15:16:21;6.40;99.90
44855;DHT22;30591;48.228;16.398;2023-02-01T15:18:50;6.30;99.90
44855;DHT22;30591;48.228;16.398;2023-02-01T15:21:20;6.30;99.90
44855;DHT22;30591;48.228;16.398;2023-02-01T15:24:35;6.20;99.90
44855;DHT22;30591;48.228;16.398;2023-02-01T15:27:05;6.10;99.90
44855;DHT22;30591;48.228;16.398;2023-02-01T15:29:33;6.10;99.90
44855;DHT22;30591;48.228;16.398;2023-02-01T15:32:01;6.00;99.90
44855;DHT22;30591;48.228;16.398;2023-02-01T15:34:46;5.90;99.90
44855;DHT22;30591;48.228;16.398;2023-02-01T15:37:17;5.90;99.90
44855;DHT22;30591;48.228;16.398;2023-02-01T15:42:31;5.80;99.90
44855;DHT22;30591;48.228;16.398;2023-02-01T15:44:59;5.70;99.90
44855;DHT22;30591;48.228;16.398;2023-02-01T15:47:28;5.70;99.90
44855;DHT22;30591;48.228;16.398;2023-02-01T15:50:00;5.50;99.90
44855;DHT22;30591;48.228;16.398;2023-02-01T15:52:36;5.50;99.90
44855;DHT22;30591;48.228;16.398;2023-02-01T15:57:52;5.30;99.90
44855;DHT22;30591;48.228;16.398;2023-02-01T16:00:31;5.20;99.90
44855;DHT22;30591;48.228;16.398;2023-02-01T16:03:05;5.10;99.90
44855;DHT22;30591;48.228;16.398;2023-02-01T16:05:39;5.10;99.90
44855;DHT22;30591;48.228;16.398;2023-02-01T16:08:48;5.10;99.90
44855;DHT22;30591;48.228;16.398;2023-02-01T16:11:21;5.10;99.90
44855;DHT22;30591;48.228;16.398;2023-02-01T16:13:49;5.00;99.90
44855;DHT22;30591;48.228;16.398;2023-02-01T16:16:17;5.00;99.90
44855;DHT22;30591;48.228;16.398;2023-02-01T16:18:45;5.00;99.90
44855;DHT22;30591;48.228;16.398;2023-02-01T16:21:12;5.10;99.90
44855;DHT22;30591;48.228;16.398;2023-02-01T16:23:40;5.00;99.90
44855;DHT22;30591;48.228;16.398;2023-02-01T16:26:07;5.00;99.90
44855;DHT22;30591;48.228;16.398;2023-02-01T16:28:34;5.00;99.90
44855;DHT22;30591;48.228;16.398;2023-02-01T16:31:02;5.00;99.90
44855;DHT22;30591;48.228;16.398;2023-02-01T16:33:29;5.00;99.90
44855;DHT22;30591;48.228;16.398;2023-02-01T16:35:57;5.00;99.90
44855;DHT22;30591;48.228;16.398;2023-02-01T16:38:27;5.00;99.90
44855;DHT22;30591;48.228;16.398;2023-02-01T16:40:54;5.00;99.90
44855;DHT22;30591;48.228;16.398;2023-02-01T16:43:25;5.00;99.90
44855;DHT22;30591;48.228;16.398;2023-02-01T16:45:55;5.10;99.90
44855;DHT22;30591;48.228;16.398;2023-02-01T16:51:12;5.10;99.90
44855;DHT22;30591;48.228;16.398;2023-02-01T16:53:40;5.20;99.90
44855;DHT22;30591;48.228;16.398;2023-02-01T16:56:29;5.10;99.90
44855;DHT22;30591;48.228;16.398;2023-02-01T16:58:58;5.10;99.90
44855;DHT22;30591;48.228;16.398;2023-02-01T17:01:26;5.10;99.90
44855;DHT22;30591;48.228;16.398;2023-02-01T17:03:53;5.10;99.90
44855;DHT22;30591;48.228;16.398;2023-02-01T17:06:23;5.10;99.90
44855;DHT22;30591;48.228;16.398;2023-02-01T17:08:57;5.20;99.90
44855;DHT22;30591;48.228;16.398;2023-02-01T17:11:27;5.10;99.90
44855;DHT22;30591;48.228;16.398;2023-02-01T17:14:17;5.10;99.90
44855;DHT22;30591;48.228;16.398;2023-02-01T17:16:47;5.10;99.90
44855;DHT22;30591;48.228;16.398;2023-02-01T17:19:19;5.10;99.90
44855;DHT22;30591;48.228;16.398;2023-02-01T17:21:52;5.10;99.90
44855;DHT22;30591;48.228;16.398;2023-02-01T17:24:26;5.00;99.90
44855;DHT22;30591;48.228;16.398;2023-02-01T17:27:05;5.00;99.90
44855;DHT22;30591;48.228;16.398;2023-02-01T17:29:32;5.00;99.90
44855;DHT22;30591;48.228;16.398;2023-02-01T17:32:00;4.90;99.90
44855;DHT22;30591;48.228;16.398;2023-02-01T17:34:31;4.80;99.90
44855;DHT22;30591;48.228;16.398;2023-02-01T17:36:58;4.80;99.90
44855;DHT22;30591;48.228;16.398;2023-02-01T17:39:26;4.70;99.90
44855;DHT22;30591;48.228;16.398;2023-02-01T17:42:11;4.80;99.90
44855;DHT22;30591;48.228;16.398;2023-02-01T17:44:39;4.70;99.90
44855;DHT22;30591;48.228;16.398;2023-02-01T17:47:06;4.70;99.90
44855;DHT22;30591;48.228;16.398;2023-02-01T17:49:33;4.80;99.90
44855;DHT22;30591;48.228;16.398;2023-02-01T17:52:02;4.80;99.90
44855;DHT22;30591;48.228;16.398;2023-02-01T17:54:29;4.90;99.90
44855;DHT22;30591;48.228;16.398;2023-02-01T17:56:56;4.90;99.90
44855;DHT22;30591;48.228;16.398;2023-02-01T17:59:29;4.90;99.90
44855;DHT22;30591;48.228;16.398;2023-02-01T18:01:57;4.90;99.90
44855;DHT22;30591;48.228;16.398;2023-02-01T18:04:27;5.00;99.90
44855;DHT22;30591;48.228;16.398;2023-02-01T18:06:54;5.00;99.90
44855;DHT22;30591;48.228;16.398;2023-02-01T18:09:21;5.10;99.90
44855;DHT22;30591;48.228;16.398;2023-02-01T18:11:49;5.00;99.90
44855;DHT22;30591;48.228;16.398;2023-02-01T18:14:16;5.10;99.90
44855;DHT22;30591;48.228;16.398;2023-02-01T18:16:43;5.00;99.90
44855;DHT22;30591;48.228;16.398;2023-02-01T18:19:11;5.10;99.90
44855;DHT22;30591;48.228;16.398;2023-02-01T18:21:41;5.10;99.90
44855;DHT22;30591;48.228;16.398;2023-02-01T18:24:13;5.00;99.90
44855;DHT22;30591;48.228;16.398;2023-02-01T18:26:42;5.00;99.90
44855;DHT22;30591;48.228;16.398;2023-02-01T18:29:09;4.90;99.90
44855;DHT22;30591;48.228;16.398;2023-02-01T18:31:44;4.80;99.90
44855;DHT22;30591;48.228;16.398;2023-02-01T18:34:12;4.60;99.90
44855;DHT22;30591;48.228;16.398;2023-02-01T18:36:50;4.50;99.90
44855;DHT22;30591;48.228;16.398;2023-02-01T18:39:19;4.20;99.90
44855;DHT22;30591;48.228;16.398;2023-02-01T18:41:48;4.20;99.90
44855;DHT22;30591;48.228;16.398;2023-02-01T18:44:18;4.30;99.90
44855;DHT22;30591;48.228;16.398;2023-02-01T18:46:45;4.30;99.90
44855;DHT22;30591;48.228;16.398;2023-02-01T18:49:12;4.30;99.90
44855;DHT22;30591;48.228;16.398;2023-02-01T18:51:44;4.30;99.90
44855;DHT22;30591;48.228;16.398;2023-02-01T18:54:12;4.20;99.90
44855;DHT22;30591;48.228;16.398;2023-02-01T18:56:40;4.20;99.90
44855;DHT22;30591;48.228;16.398;2023-02-01T18:59:09;4.10;99.90